Kimberley, Canada
Current Conditions -  °F | °C
As of 3:00 PM on Friday 24 Oct 2014 (Local Time) from CYXC Reporting Station
Broken Clouds Broken Clouds  
Wind Chill: 54°   Ceiling: 25000
Heat Index: 54°   Visibility: 25mi
Dew Point: 32°   Wind: 9mph
Humidity: 44%   Direction: 160°SSE
Pressure: 30.04"   Gusts: 17mph
Location:  49.68°N, 115.98°W
Report Text: CYXC 242100Z 16008G15KT 25SM SCT060 BKN250 12/00 A3004 RMK SC4CI2 SLP189 DENSITY ALT 3200FT
Loading
Personal Weather Stations






























Interactive Weather Map
Tropical Storm Tracking
New forecast layout! Learn more

10-Day Weather Forecast

Advertisements
Track Severe Weather on mobile